Time;durP1;ratioP1;P1;durP2;ratioP2;P2;SDS_P1;SDS_P2;PMS_P1;PMS_P2;Temp;Humidity;BMP_temperature;BMP_pressure;BME280_temperature;BME280_humidity;BME280_pressure;Samples;Min_cycle;Max_cycle;Signal;HPM_P1;HPM_P2
2024/03/21 00:00:20;;;;;;;8.75;3.75;;;10.70;99.90;;;;;;4974692;28;20034;-80
2024/03/21 00:02:46;;;;;;;7.18;3.47;;;10.70;99.90;;;;;;4975643;28;20031;-79
2024/03/21 00:05:14;;;;;;;4.93;3.20;;;10.80;99.90;;;;;;4974392;28;20027;-80
2024/03/21 00:07:40;;;;;;;6.07;3.78;;;10.80;99.90;;;;;;4975798;28;20035;-81
2024/03/21 00:10:06;;;;;;;6.43;3.72;;;10.80;99.90;;;;;;4974807;28;20081;-85
2024/03/21 00:12:32;;;;;;;7.70;3.65;;;10.80;99.90;;;;;;4975268;28;20035;-80
2024/03/21 00:14:57;;;;;;;5.97;3.63;;;10.90;99.90;;;;;;4975264;28;20026;-80
2024/03/21 00:17:23;;;;;;;7.28;3.13;;;10.90;99.90;;;;;;4974535;28;20057;-79
2024/03/21 00:19:48;;;;;;;6.07;3.20;;;10.70;99.90;;;;;;4975121;28;20031;-81
2024/03/21 00:22:14;;;;;;;4.68;2.90;;;10.70;99.90;;;;;;4975622;28;20027;-81
2024/03/21 00:24:39;;;;;;;5.75;2.92;;;10.60;99.90;;;;;;4975383;28;20031;-81
2024/03/21 00:27:05;;;;;;;5.22;3.08;;;10.60;99.90;;;;;;4974966;28;20050;-85
2024/03/21 00:29:32;;;;;;;8.90;3.17;;;10.60;99.90;;;;;;4976047;28;20038;-81
2024/03/21 00:31:57;;;;;;;6.38;3.38;;;10.50;99.90;;;;;;4975739;28;20066;-81
2024/03/21 00:34:23;;;;;;;6.70;3.40;;;10.50;99.90;;;;;;4975615;28;20436;-81
2024/03/21 00:36:48;;;;;;;6.45;2.97;;;10.50;99.90;;;;;;4978385;28;20396;-81
2024/03/21 00:39:19;;;;;;;5.75;3.47;;;10.40;99.90;;;;;;4977352;28;20034;-80
2024/03/21 00:41:48;;;;;;;5.22;2.95;;;10.50;99.90;;;;;;4994942;28;20042;-79
2024/03/21 00:44:14;;;;;;;7.75;3.33;;;10.50;99.90;;;;;;4977278;28;20132;-79
2024/03/21 00:46:39;;;;;;;5.70;3.00;;;10.40;99.90;;;;;;4977592;28;20534;-80
2024/03/21 00:49:06;;;;;;;5.57;3.13;;;10.60;99.90;;;;;;4994904;28;20114;-84
2024/03/21 00:51:32;;;;;;;7.43;3.10;;;10.50;99.90;;;;;;4977323;28;20058;-80
2024/03/21 00:53:58;;;;;;;4.53;3.22;;;10.50;99.90;;;;;;4978007;28;20109;-80
2024/03/21 00:56:24;;;;;;;5.75;2.90;;;10.40;99.90;;;;;;4977155;28;20026;-81
2024/03/21 00:58:50;;;;;;;5.60;3.03;;;10.40;99.90;;;;;;4995218;28;20034;-80
2024/03/21 01:01:15;;;;;;;7.88;3.00;;;10.40;99.90;;;;;;4994149;28;20109;-81
2024/03/21 01:03:42;;;;;;;8.70;3.03;;;10.40;99.90;;;;;;4978004;28;20129;-80
2024/03/21 01:06:07;;;;;;;5.57;3.00;;;10.40;99.90;;;;;;4977177;28;20472;-85
2024/03/21 01:08:33;;;;;;;5.55;2.95;;;10.40;99.90;;;;;;4977443;28;20049;-80
2024/03/21 01:10:59;;;;;;;5.35;3.20;;;10.30;99.90;;;;;;4977734;28;20034;-80
2024/03/21 01:13:25;;;;;;;5.35;3.17;;;10.40;99.90;;;;;;4977626;28;20033;-82
2024/03/21 01:15:50;;;;;;;4.80;2.83;;;10.50;99.90;;;;;;4994750;28;20027;-82
2024/03/21 01:18:16;;;;;;;4.70;2.80;;;10.50;99.90;;;;;;4977624;28;20073;-81
2024/03/21 01:20:43;;;;;;;5.35;3.38;;;10.50;99.90;;;;;;4977478;28;20078;-82
2024/03/21 01:23:09;;;;;;;6.97;3.70;;;10.50;99.90;;;;;;4977243;28;20069;-85
2024/03/21 01:25:35;;;;;;;4.97;3.20;;;10.50;99.90;;;;;;4977176;28;20169;-82
2024/03/21 01:28:02;;;;;;;4.82;3.10;;;10.50;99.90;;;;;;4977958;28;20049;-82
2024/03/21 01:30:33;;;;;;;4.82;3.20;;;10.50;99.90;;;;;;4977549;28;20030;-82
2024/03/21 01:32:59;;;;;;;5.40;2.90;;;10.50;99.90;;;;;;4978119;28;20049;-82
2024/03/21 01:35:26;;;;;;;4.43;2.70;;;10.50;99.90;;;;;;4973894;28;20057;-82
2024/03/21 01:37:55;;;;;;;4.88;2.35;;;10.60;99.90;;;;;;4974536;28;20031;-82
2024/03/21 01:40:21;;;;;;;5.63;3.03;;;10.70;99.90;;;;;;4974793;28;20073;-82
2024/03/21 01:42:48;;;;;;;2.95;2.30;;;10.80;99.90;;;;;;4975298;28;20034;-82
2024/03/21 01:45:15;;;;;;;5.30;2.72;;;11.00;99.90;;;;;;4973671;28;20460;-82
2024/03/21 01:47:41;;;;;;;4.90;2.70;;;11.10;99.90;;;;;;4973999;28;20054;-82
2024/03/21 01:50:07;;;;;;;4.72;2.67;;;11.10;99.90;;;;;;4975064;28;20035;-83
2024/03/21 01:52:35;;;;;;;4.70;2.80;;;11.10;99.90;;;;;;4973487;28;20114;-81
2024/03/21 01:55:01;;;;;;;10.82;3.30;;;11.20;99.90;;;;;;4974380;28;20023;-82
2024/03/21 01:57:27;;;;;;;5.97;3.17;;;11.20;99.90;;;;;;4974865;28;20023;-82
2024/03/21 01:59:56;;;;;;;4.60;2.55;;;11.20;99.90;;;;;;4974081;28;20031;-80
2024/03/21 02:02:25;;;;;;;4.22;2.47;;;11.20;99.90;;;;;;4973567;28;20423;-81
2024/03/21 02:04:52;;;;;;;3.97;2.28;;;11.20;99.90;;;;;;4977814;28;20051;-81
2024/03/21 02:07:18;;;;;;;5.53;2.35;;;11.20;99.90;;;;;;4978518;28;20098;-81
2024/03/21 02:09:44;;;;;;;3.95;2.58;;;11.20;99.90;;;;;;4978091;28;20035;-81
2024/03/21 02:12:10;;;;;;;5.90;2.72;;;11.30;99.90;;;;;;4977286;28;20037;-84
2024/03/21 02:14:37;;;;;;;5.97;2.70;;;11.30;99.90;;;;;;4978730;28;20027;-81
2024/03/21 02:17:03;;;;;;;5.55;2.80;;;11.20;99.90;;;;;;4977475;28;20026;-81
2024/03/21 02:19:30;;;;;;;4.38;2.80;;;11.10;99.90;;;;;;4976809;28;20034;-81
2024/03/21 02:24:40;;;;;;;5.28;2.50;;;11.00;99.90;;;;;;4978508;28;20061;-81
2024/03/21 02:27:05;;;;;;;6.07;2.60;;;11.00;99.90;;;;;;4977405;28;20031;-81
2024/03/21 02:29:31;;;;;;;5.55;2.67;;;11.00;99.90;;;;;;4976915;28;20035;-81
2024/03/21 02:31:57;;;;;;;4.35;2.53;;;10.90;99.90;;;;;;4977364;28;20027;-81
2024/03/21 02:34:22;;;;;;;4.65;2.78;;;10.90;99.90;;;;;;4977302;28;20048;-81
2024/03/21 02:36:48;;;;;;;4.50;2.38;;;10.90;99.90;;;;;;4997678;28;20104;-80
2024/03/21 02:39:14;;;;;;;5.07;3.00;;;10.90;99.90;;;;;;4979946;28;20030;-85
2024/03/21 02:41:39;;;;;;;5.43;3.13;;;10.90;99.90;;;;;;4997390;28;20031;-81
2024/03/21 02:44:05;;;;;;;6.15;2.95;;;10.90;99.90;;;;;;4980441;28;20026;-80
2024/03/21 02:46:30;;;;;;;5.63;3.15;;;10.90;99.90;;;;;;4979273;28;20098;-81
2024/03/21 02:48:56;;;;;;;5.47;3.08;;;10.90;99.90;;;;;;4979761;28;20030;-81
2024/03/21 02:51:23;;;;;;;4.47;3.10;;;10.90;99.90;;;;;;4979212;28;20019;-81
2024/03/21 02:53:50;;;;;;;5.20;3.15;;;10.90;99.90;;;;;;4979980;28;20057;-82
2024/03/21 02:56:16;;;;;;;7.68;3.65;;;10.90;99.90;;;;;;4996776;28;20520;-83
2024/03/21 02:58:42;;;;;;;5.18;3.53;;;10.90;99.90;;;;;;4979762;28;20129;-83
2024/03/21 03:01:08;;;;;;;6.28;3.28;;;10.90;99.90;;;;;;4980509;28;20472;-82
2024/03/21 03:03:33;;;;;;;8.38;4.20;;;10.90;99.90;;;;;;4979315;28;20190;-83
2024/03/21 03:05:59;;;;;;;8.73;3.83;;;10.90;99.90;;;;;;4980279;28;20081;-82
2024/03/21 03:08:24;;;;;;;7.20;3.90;;;10.90;99.90;;;;;;4979555;28;20535;-82
2024/03/21 03:10:50;;;;;;;9.32;4.20;;;10.90;99.90;;;;;;4979751;28;20113;-81
2024/03/21 03:13:15;;;;;;;5.93;3.88;;;10.90;99.90;;;;;;4979240;28;20494;-83
2024/03/21 03:15:41;;;;;;;8.60;3.67;;;10.90;99.90;;;;;;4979331;28;20026;-81
2024/03/21 03:18:06;;;;;;;10.68;4.05;;;10.90;99.90;;;;;;4979459;28;20025;-82
2024/03/21 03:20:32;;;;;;;5.18;3.67;;;10.90;99.90;;;;;;4978945;28;20041;-80
2024/03/21 03:22:57;;;;;;;6.38;4.07;;;10.90;99.90;;;;;;4979765;28;20525;-80
2024/03/21 03:25:23;;;;;;;7.07;4.30;;;10.90;99.90;;;;;;4979171;28;20030;-81
2024/03/21 03:27:53;;;;;;;9.65;4.20;;;10.90;99.90;;;;;;4979778;28;20076;-79
2024/03/21 03:30:19;;;;;;;8.30;4.45;;;10.90;99.90;;;;;;4996443;28;20034;-81
2024/03/21 03:32:47;;;;;;;8.50;4.68;;;10.90;99.90;;;;;;4979463;28;20113;-81
2024/03/21 03:35:40;;;;;;;10.10;4.78;;;10.90;99.90;;;;;;4979195;28;20057;-81
2024/03/21 03:38:08;;;;;;;8.77;4.40;;;10.90;99.90;;;;;;4979547;28;20069;-81
2024/03/21 03:40:34;;;;;;;8.88;4.25;;;10.90;99.90;;;;;;4978779;28;20041;-81
2024/03/21 03:42:59;;;;;;;7.03;4.53;;;10.90;99.90;;;;;;4979275;28;20034;-81
2024/03/21 03:45:25;;;;;;;5.82;3.72;;;10.90;99.90;;;;;;4978815;28;20033;-82
2024/03/21 03:47:50;;;;;;;7.90;4.28;;;10.90;99.90;;;;;;4996328;28;20432;-81
2024/03/21 03:50:18;;;;;;;8.00;4.30;;;10.90;99.90;;;;;;4978959;28;20030;-83
2024/03/21 03:52:43;;;;;;;10.98;4.60;;;10.90;99.90;;;;;;4978649;28;20065;-81
2024/03/21 03:55:09;;;;;;;8.77;4.47;;;10.90;99.90;;;;;;4996113;28;20444;-80
2024/03/21 03:57:35;;;;;;;7.68;4.40;;;10.90;99.90;;;;;;4978041;28;20022;-81
2024/03/21 04:00:01;;;;;;;9.25;4.80;;;10.90;99.90;;;;;;4995874;28;20038;-81
2024/03/21 04:02:29;;;;;;;7.55;4.90;;;10.90;99.90;;;;;;4978225;28;20037;-81
2024/03/21 04:04:55;;;;;;;7.45;4.28;;;10.90;99.90;;;;;;4978584;28;20404;-81
2024/03/21 04:07:21;;;;;;;6.75;4.68;;;11.00;99.90;;;;;;4978315;28;20030;-83
2024/03/21 04:09:47;;;;;;;7.68;4.25;;;11.00;99.90;;;;;;4978577;28;20180;-81
2024/03/21 04:12:13;;;;;;;6.05;4.40;;;11.00;99.90;;;;;;4978825;28;20050;-82
2024/03/21 04:14:39;;;;;;;9.10;4.63;;;10.90;99.90;;;;;;4977602;28;20109;-81
2024/03/21 04:17:05;;;;;;;8.02;4.45;;;11.00;99.90;;;;;;4978230;28;20030;-81
2024/03/21 04:19:31;;;;;;;8.27;4.10;;;11.00;99.90;;;;;;4977717;28;20026;-82
2024/03/21 04:21:56;;;;;;;8.30;4.55;;;10.90;99.90;;;;;;4978171;28;20524;-81
2024/03/21 04:24:22;;;;;;;7.25;4.68;;;10.90;99.90;;;;;;4978060;28;20022;-82
2024/03/21 04:26:48;;;;;;;8.73;4.80;;;10.80;99.90;;;;;;4977990;28;20069;-81
2024/03/21 04:29:13;;;;;;;8.02;4.57;;;10.90;99.90;;;;;;4978413;28;20031;-81
2024/03/21 04:31:39;;;;;;;6.95;4.57;;;10.80;99.90;;;;;;4977937;28;20026;-81
2024/03/21 04:34:04;;;;;;;6.95;4.38;;;10.80;99.90;;;;;;4995697;28;20034;-81
2024/03/21 04:36:30;;;;;;;7.93;4.40;;;10.80;99.90;;;;;;4994693;28;20055;-82
2024/03/21 04:38:56;;;;;;;10.52;4.65;;;10.80;99.90;;;;;;4978222;28;20034;-81
2024/03/21 04:41:21;;;;;;;7.93;4.53;;;10.80;99.90;;;;;;4977408;28;20022;-86
2024/03/21 04:43:47;;;;;;;11.07;4.68;;;10.80;99.90;;;;;;4977673;28;20031;-81
2024/03/21 04:46:12;;;;;;;6.43;4.00;;;10.80;99.90;;;;;;4978082;28;20386;-81
2024/03/21 04:48:38;;;;;;;6.40;3.72;;;10.80;99.90;;;;;;4977755;28;20580;-81
2024/03/21 04:51:04;;;;;;;6.47;4.15;;;10.80;99.90;;;;;;4977824;28;20022;-81
2024/03/21 04:53:30;;;;;;;7.82;4.57;;;10.80;99.90;;;;;;4994677;28;20023;-81
2024/03/21 04:55:56;;;;;;;7.82;4.45;;;10.80;99.90;;;;;;4995075;28;20022;-80
2024/03/21 04:58:22;;;;;;;8.60;4.43;;;10.80;99.90;;;;;;4994705;28;20026;-84
2024/03/21 05:00:48;;;;;;;7.93;4.63;;;10.80;99.90;;;;;;4977611;28;20030;-81
2024/03/21 05:03:13;;;;;;;8.30;4.57;;;10.80;99.90;;;;;;4977871;28;20364;-82
2024/03/21 05:05:39;;;;;;;8.80;4.50;;;10.80;99.90;;;;;;4977235;28;20038;-80
2024/03/21 05:08:05;;;;;;;10.90;4.35;;;10.80;99.90;;;;;;4978137;28;20037;-80
2024/03/21 05:10:31;;;;;;;7.78;4.45;;;10.80;99.90;;;;;;4994487;28;20062;-79
2024/03/21 05:12:57;;;;;;;15.23;4.72;;;10.80;99.90;;;;;;4978284;28;20058;-81
2024/03/21 05:15:22;;;;;;;6.40;4.30;;;10.70;99.90;;;;;;4994689;28;20022;-83
2024/03/21 05:17:48;;;;;;;7.85;4.80;;;10.70;99.90;;;;;;4977822;28;20033;-82
2024/03/21 05:20:13;;;;;;;9.75;5.00;;;10.70;99.90;;;;;;4977719;28;20467;-81
2024/03/21 05:22:39;;;;;;;8.15;4.57;;;10.70;99.90;;;;;;4977383;28;20081;-83
2024/03/21 05:25:07;;;;;;;12.65;5.15;;;10.70;99.90;;;;;;4977595;28;20038;-83
2024/03/21 05:27:32;;;;;;;7.80;4.70;;;10.70;99.90;;;;;;4977077;28;20080;-83
2024/03/21 05:29:58;;;;;;;7.70;4.47;;;10.80;99.90;;;;;;4977583;28;20479;-82
2024/03/21 05:32:24;;;;;;;6.03;4.13;;;10.80;99.90;;;;;;4994074;28;20026;-86
2024/03/21 05:34:49;;;;;;;9.15;4.65;;;10.70;99.90;;;;;;4976827;28;20153;-81
2024/03/21 05:37:15;;;;;;;9.43;4.88;;;10.80;99.90;;;;;;4993887;28;20030;-80
2024/03/21 05:39:41;;;;;;;5.72;3.80;;;10.80;99.90;;;;;;4976414;28;20760;-80
2024/03/21 05:42:06;;;;;;;10.30;4.13;;;10.80;99.90;;;;;;4977351;28;20030;-81
2024/03/21 05:44:32;;;;;;;7.30;4.45;;;10.80;99.90;;;;;;4976942;28;20038;-83
2024/03/21 05:46:58;;;;;;;7.93;4.65;;;10.80;99.90;;;;;;4994717;28;20407;-80
2024/03/21 05:49:24;;;;;;;8.10;4.47;;;10.90;99.90;;;;;;4977097;28;20026;-83
2024/03/21 05:51:51;;;;;;;6.85;4.68;;;10.90;99.90;;;;;;4976978;28;20081;-82
2024/03/21 05:54:16;;;;;;;9.13;4.90;;;11.00;99.90;;;;;;4977108;28;20121;-81
2024/03/21 05:56:42;;;;;;;7.95;4.40;;;11.00;99.90;;;;;;4976689;28;20132;-81
2024/03/21 05:59:08;;;;;;;11.63;4.63;;;11.00;99.90;;;;;;4976907;28;20030;-87
2024/03/21 06:01:34;;;;;;;6.88;4.50;;;11.10;99.90;;;;;;4976542;28;20038;-83
2024/03/21 06:04:01;;;;;;;7.85;4.57;;;11.10;99.90;;;;;;4976834;28;20111;-83
2024/03/21 06:06:27;;;;;;;10.05;5.45;;;11.10;99.90;;;;;;4976682;28;20041;-84
2024/03/21 06:08:53;;;;;;;13.73;5.13;;;11.20;99.90;;;;;;4976716;28;20026;-77
2024/03/21 06:11:19;;;;;;;8.57;4.93;;;11.20;99.90;;;;;;4994500;28;20448;-78
2024/03/21 06:13:44;;;;;;;8.73;4.68;;;11.20;99.90;;;;;;4977268;28;20030;-85
2024/03/21 06:16:10;;;;;;;9.02;4.80;;;11.30;99.90;;;;;;4976613;28;20456;-84
2024/03/21 06:18:35;;;;;;;8.07;4.97;;;11.20;99.90;;;;;;4992932;28;20027;-84
2024/03/21 06:21:01;;;;;;;8.70;5.13;;;11.30;99.90;;;;;;4993811;28;20045;-85
2024/03/21 06:23:26;;;;;;;7.47;4.57;;;11.30;99.90;;;;;;4976544;28;20034;-84
2024/03/21 06:25:52;;;;;;;6.78;4.30;;;11.40;99.90;;;;;;4976939;28;20084;-83
2024/03/21 06:28:18;;;;;;;17.42;7.90;;;11.40;99.90;;;;;;4993747;28;20077;-82
2024/03/21 06:30:44;;;;;;;9.15;4.93;;;11.40;99.90;;;;;;4993205;28;20294;-82
2024/03/21 06:33:09;;;;;;;7.78;4.88;;;11.40;99.90;;;;;;4976639;28;20464;-82
2024/03/21 06:35:35;;;;;;;7.35;4.40;;;11.50;99.90;;;;;;4975580;28;20050;-83
2024/03/21 06:38:00;;;;;;;8.48;4.85;;;11.50;99.90;;;;;;4976612;28;20030;-82
2024/03/21 06:40:26;;;;;;;9.13;4.85;;;11.50;99.90;;;;;;4977027;28;20077;-85
2024/03/21 06:42:53;;;;;;;7.35;4.55;;;11.60;99.90;;;;;;4976584;28;20475;-82
2024/03/21 06:45:18;;;;;;;7.30;4.40;;;11.60;99.90;;;;;;4994043;28;20023;-81
2024/03/21 06:47:46;;;;;;;12.07;4.30;;;11.70;99.90;;;;;;4976010;28;20365;-82
2024/03/21 06:50:16;;;;;;;8.77;3.97;;;11.70;99.90;;;;;;4977641;28;20113;-81
2024/03/21 06:52:44;;;;;;;8.13;3.80;;;11.70;99.90;;;;;;4979872;28;20033;-81
2024/03/21 06:55:13;;;;;;;7.95;4.20;;;11.80;99.90;;;;;;4980078;28;20026;-81
2024/03/21 06:57:46;;;;;;;8.27;4.15;;;11.80;99.90;;;;;;4979510;28;20106;-81
2024/03/21 07:00:12;;;;;;;7.20;3.80;;;11.90;99.90;;;;;;4997180;28;20038;-81
2024/03/21 07:02:38;;;;;;;9.80;4.40;;;12.00;99.90;;;;;;4997087;28;20023;-81
2024/03/21 07:05:08;;;;;;;10.15;4.03;;;12.00;99.90;;;;;;4997408;28;20048;-81
2024/03/21 07:07:34;;;;;;;5.85;3.50;;;12.10;99.90;;;;;;4979808;28;20126;-82
2024/03/21 07:10:00;;;;;;;5.32;3.78;;;12.10;99.90;;;;;;4997222;28;20022;-81
2024/03/21 07:12:25;;;;;;;7.53;4.32;;;12.10;99.90;;;;;;4997134;28;20093;-81
2024/03/21 07:14:51;;;;;;;14.10;5.07;;;12.20;99.90;;;;;;4979339;28;20023;-82
2024/03/21 07:17:18;;;;;;;6.95;3.97;;;12.20;99.90;;;;;;4979354;28;20054;-81
2024/03/21 07:19:44;;;;;;;8.57;4.30;;;12.30;99.90;;;;;;4979300;28;20037;-81
2024/03/21 07:22:10;;;;;;;7.13;3.97;;;12.30;99.90;;;;;;4979807;28;20124;-79
2024/03/21 07:24:36;;;;;;;7.60;4.40;;;12.40;99.90;;;;;;4996282;28;20415;-80
2024/03/21 07:27:01;;;;;;;6.40;3.85;;;12.50;99.90;;;;;;4996994;28;20436;-80
2024/03/21 07:29:28;;;;;;;12.73;4.40;;;12.50;99.90;;;;;;4979294;28;20076;-80
2024/03/21 07:31:56;;;;;;;5.93;3.55;;;12.60;99.90;;;;;;4979755;28;20157;-81
2024/03/21 07:34:25;;;;;;;9.20;4.40;;;12.60;99.90;;;;;;4996793;28;20042;-81
2024/03/21 07:36:51;;;;;;;8.00;3.90;;;12.70;99.90;;;;;;4979248;28;20050;-81
2024/03/21 07:39:20;;;;;;;6.60;3.75;;;12.60;99.90;;;;;;4979466;28;20033;-81
2024/03/21 07:41:49;;;;;;;8.45;3.70;;;12.70;99.90;;;;;;4978726;28;20113;-81
2024/03/21 07:44:15;;;;;;;8.90;3.90;;;12.80;99.90;;;;;;4996158;28;20495;-81
2024/03/21 07:46:41;;;;;;;7.05;4.28;;;12.80;99.90;;;;;;4978737;28;20026;-81
2024/03/21 07:49:08;;;;;;;6.35;3.60;;;12.80;99.90;;;;;;4979283;28;20029;-81
2024/03/21 07:51:37;;;;;;;5.45;3.67;;;12.90;99.90;;;;;;4979088;28;20080;-81
2024/03/21 07:54:03;;;;;;;6.47;3.67;;;12.90;99.90;;;;;;4979237;28;20062;-81
2024/03/21 07:56:29;;;;;;;6.55;3.75;;;13.00;99.90;;;;;;4996399;28;20026;-81
2024/03/21 07:58:55;;;;;;;6.53;3.50;;;13.00;99.90;;;;;;4978588;28;20077;-82
2024/03/21 08:01:23;;;;;;;7.00;3.67;;;13.00;99.90;;;;;;4994930;28;20053;-81
2024/03/21 08:03:50;;;;;;;6.03;3.28;;;13.00;99.90;;;;;;4978366;28;20451;-81
2024/03/21 08:06:16;;;;;;;5.22;3.40;;;13.00;99.90;;;;;;4978839;28;20113;-81
2024/03/21 08:08:42;;;;;;;9.25;3.75;;;13.10;99.90;;;;;;4978293;28;20018;-82
2024/03/21 08:11:07;;;;;;;6.05;3.58;;;13.10;99.90;;;;;;4978921;28;20026;-81
2024/03/21 08:13:33;;;;;;;8.43;3.72;;;13.20;99.90;;;;;;4978318;28;20027;-82
2024/03/21 08:15:59;;;;;;;4.82;3.58;;;13.30;99.90;;;;;;4995981;28;20093;-81
2024/03/21 08:18:24;;;;;;;9.63;4.20;;;13.20;99.90;;;;;;4978879;28;20030;-81
2024/03/21 08:20:53;;;;;;;6.75;3.72;;;13.20;99.90;;;;;;4995269;28;20517;-82
2024/03/21 08:23:19;;;;;;;6.88;3.50;;;13.20;99.90;;;;;;4978484;28;20053;-81
2024/03/21 08:25:45;;;;;;;6.38;3.53;;;13.20;99.90;;;;;;4995374;28;20022;-81
2024/03/21 08:28:11;;;;;;;10.32;3.80;;;13.20;99.90;;;;;;4995630;28;20030;-81
2024/03/21 08:30:43;;;;;;;8.50;3.83;;;13.20;99.90;;;;;;4978486;28;20060;-81
2024/03/21 08:33:10;;;;;;;4.85;3.63;;;13.30;99.90;;;;;;4995858;28;20024;-81
2024/03/21 08:35:35;;;;;;;5.00;3.17;;;13.30;99.90;;;;;;4994893;28;20039;-81
2024/03/21 08:38:01;;;;;;;7.57;3.63;;;13.50;99.90;;;;;;4978384;28;20463;-81
2024/03/21 08:40:26;;;;;;;6.40;3.63;;;13.60;99.90;;;;;;4995477;28;20420;-80
2024/03/21 08:42:52;;;;;;;7.63;4.00;;;13.80;99.90;;;;;;4977834;28;20034;-81
2024/03/21 08:45:19;;;;;;;6.22;3.78;;;13.90;99.90;;;;;;4995663;28;20041;-82
2024/03/21 08:47:45;;;;;;;7.13;3.47;;;14.00;99.90;;;;;;4977774;28;20517;-83
2024/03/21 08:50:10;;;;;;;8.40;3.72;;;14.20;99.90;;;;;;4995261;28;20026;-83
2024/03/21 08:52:36;;;;;;;10.82;4.25;;;14.20;99.90;;;;;;4977504;28;20452;-83
2024/03/21 08:55:02;;;;;;;7.82;4.22;;;14.20;99.90;;;;;;4978226;28;20050;-83
2024/03/21 08:57:27;;;;;;;5.53;3.30;;;14.20;99.90;;;;;;4978157;28;20028;-82
2024/03/21 08:59:53;;;;;;;8.15;4.05;;;14.10;99.90;;;;;;4977500;28;20041;-84
2024/03/21 09:02:18;;;;;;;8.05;3.85;;;14.00;99.90;;;;;;4977917;28;20113;-83
2024/03/21 09:04:44;;;;;;;7.85;4.07;;;14.00;99.90;;;;;;4977358;28;20096;-83
2024/03/21 09:07:10;;;;;;;6.70;4.18;;;14.00;99.90;;;;;;4994904;28;20538;-83
2024/03/21 09:09:36;;;;;;;9.90;4.07;;;14.00;99.90;;;;;;4977515;28;20412;-83
2024/03/21 09:12:03;;;;;;;8.38;3.92;;;14.10;99.90;;;;;;4977669;28;20057;-83
2024/03/21 09:14:29;;;;;;;6.88;4.28;;;14.10;99.90;;;;;;4976940;28;20030;-82
2024/03/21 09:16:55;;;;;;;8.57;3.92;;;14.10;99.90;;;;;;4977243;28;20121;-82
2024/03/21 09:19:21;;;;;;;7.05;4.00;;;14.20;99.90;;;;;;4977674;28;20061;-82
2024/03/21 09:21:47;;;;;;;7.60;4.20;;;14.10;99.90;;;;;;4976869;28;20022;-82
2024/03/21 09:24:13;;;;;;;9.00;4.10;;;14.10;99.90;;;;;;4977588;28;20030;-82
2024/03/21 09:26:41;;;;;;;5.10;3.55;;;14.10;99.90;;;;;;4993803;28;20034;-83
2024/03/21 09:29:07;;;;;;;9.93;4.20;;;14.20;99.90;;;;;;4994687;28;20049;-83
2024/03/21 09:31:33;;;;;;;8.27;4.07;;;14.30;99.90;;;;;;4977150;28;20022;-82
2024/03/21 09:33:59;;;;;;;7.88;4.20;;;14.50;99.90;;;;;;4994035;28;20018;-83
2024/03/21 09:36:26;;;;;;;8.82;3.88;;;14.60;99.90;;;;;;4976914;28;20050;-83
2024/03/21 09:38:52;;;;;;;10.13;4.22;;;14.70;99.90;;;;;;4976841;28;20452;-82
2024/03/21 09:41:17;;;;;;;7.00;4.07;;;14.80;99.90;;;;;;4977426;28;20022;-82
2024/03/21 09:43:44;;;;;;;6.70;4.07;;;14.90;99.90;;;;;;4961083;28;20408;-82
2024/03/21 09:46:15;;;;;;;6.80;3.83;;;14.90;99.90;;;;;;4977425;28;20061;-82
2024/03/21 09:48:41;;;;;;;5.38;3.45;;;15.00;99.90;;;;;;4976735;28;20529;-83
2024/03/21 09:51:19;;;;;;;7.50;4.18;;;14.90;99.90;;;;;;4977406;28;20026;-82
2024/03/21 09:53:48;;;;;;;8.93;4.30;;;14.90;99.90;;;;;;4976663;28;20037;-82
2024/03/21 09:56:16;;;;;;;8.43;3.83;;;14.90;99.90;;;;;;4976982;28;20019;-82
2024/03/21 09:58:42;;;;;;;8.25;3.70;;;14.90;99.90;;;;;;4976786;28;20033;-82
2024/03/21 10:01:34;;;;;;;7.03;4.30;;;14.90;99.90;;;;;;4993986;28;20034;-82
2024/03/21 10:04:00;;;;;;;7.70;4.22;;;15.00;99.90;;;;;;4973471;28;20039;-82
2024/03/21 10:06:26;;;;;;;6.78;4.00;;;15.00;99.90;;;;;;4977337;28;20038;-82
2024/03/21 10:08:52;;;;;;;6.30;3.90;;;15.10;99.90;;;;;;4976852;28;20029;-82
2024/03/21 10:11:19;;;;;;;7.18;3.88;;;15.30;99.90;;;;;;4994103;28;20026;-82
2024/03/21 10:13:45;;;;;;;8.55;4.15;;;15.30;99.90;;;;;;4976514;28;20121;-82
2024/03/21 10:16:15;;;;;;;7.90;4.35;;;15.40;99.90;;;;;;4976861;28;20113;-82
2024/03/21 10:18:42;;;;;;;7.80;4.28;;;15.40;99.90;;;;;;4993693;28;20032;-84
2024/03/21 10:21:23;;;;;;;10.80;4.68;;;15.50;99.90;;;;;;4976906;28;20156;-83
2024/03/21 10:23:49;;;;;;;7.60;3.90;;;15.60;99.90;;;;;;4976711;28;20019;-84
2024/03/21 10:26:17;;;;;;;7.43;4.25;;;15.70;99.90;;;;;;4980153;28;20034;-83
2024/03/21 10:28:46;;;;;;;8.13;4.55;;;15.90;99.90;;;;;;4980022;28;20033;-83
2024/03/21 10:31:13;;;;;;;9.90;4.50;;;16.00;99.90;;;;;;4980562;28;20022;-83
2024/03/21 10:33:39;;;;;;;7.80;4.25;;;16.00;99.90;;;;;;4979686;28;20058;-87
2024/03/21 10:36:06;;;;;;;7.82;4.45;;;16.20;99.90;;;;;;4980167;28;20073;-83
2024/03/21 10:38:31;;;;;;;6.28;3.60;;;16.20;99.90;;;;;;4997588;28;20031;-83
2024/03/21 10:41:03;;;;;;;8.50;4.43;;;16.30;99.90;;;;;;4980079;28;20144;-83
2024/03/21 10:43:31;;;;;;;8.27;3.95;;;16.30;99.90;;;;;;4980899;28;20030;-84
2024/03/21 10:45:57;;;;;;;7.60;4.50;;;16.40;99.90;;;;;;4997127;28;20466;-83
2024/03/21 10:48:29;;;;;;;9.85;5.18;;;16.40;99.90;;;;;;4980044;28;20388;-84
2024/03/21 10:50:55;;;;;;;10.07;4.40;;;16.40;99.90;;;;;;4979928;28;20026;-83
2024/03/21 10:53:22;;;;;;;11.00;4.00;;;16.40;99.90;;;;;;4980061;28;20026;-83
2024/03/21 10:55:52;;;;;;;8.63;3.90;;;16.50;99.90;;;;;;4979928;28;20030;-84
2024/03/21 10:58:20;;;;;;;8.02;4.22;;;16.40;99.90;;;;;;4980127;28;20121;-84
2024/03/21 11:00:55;;;;;;;8.52;4.72;;;16.40;99.90;;;;;;4996728;28;20029;-84
2024/03/21 11:03:21;;;;;;;7.72;4.45;;;16.30;99.90;;;;;;4997268;28;20068;-83
2024/03/21 11:05:56;;;;;;;9.95;4.28;;;16.30;99.90;;;;;;4979348;28;20418;-82
2024/03/21 11:08:29;;;;;;;9.23;3.97;;;16.20;99.90;;;;;;4997331;28;20022;-81
2024/03/21 11:10:56;;;;;;;8.80;3.92;;;16.20;99.90;;;;;;4996612;28;20097;-82
2024/03/21 11:13:25;;;;;;;9.38;4.15;;;16.20;99.90;;;;;;4996965;28;20022;-83
2024/03/21 11:15:54;;;;;;;9.88;4.22;;;16.20;99.90;;;;;;4996375;28;20026;-83
2024/03/21 11:18:20;;;;;;;8.15;4.50;;;16.10;99.90;;;;;;4997033;28;20040;-82
2024/03/21 11:20:46;;;;;;;7.63;4.50;;;16.10;99.90;;;;;;4996344;28;20371;-83
2024/03/21 11:23:13;;;;;;;9.32;4.60;;;16.10;99.90;;;;;;4979709;28;20019;-83
2024/03/21 11:25:39;;;;;;;8.07;4.50;;;16.10;99.90;;;;;;4979833;28;20022;-83
2024/03/21 11:28:04;;;;;;;8.85;4.78;;;16.10;99.90;;;;;;4978991;28;20025;-82
2024/03/21 11:30:30;;;;;;;8.65;4.43;;;16.10;99.90;;;;;;4979430;28;20034;-82
2024/03/21 11:32:55;;;;;;;8.95;4.70;;;16.20;99.90;;;;;;4979280;28;20025;-82
2024/03/21 11:35:23;;;;;;;8.27;4.25;;;16.20;99.90;;;;;;4978554;28;20129;-82
2024/03/21 11:37:49;;;;;;;9.50;5.38;;;16.30;99.90;;;;;;4979027;28;20101;-83
2024/03/21 11:40:16;;;;;;;9.90;5.03;;;16.30;99.90;;;;;;4996383;28;20120;-82
2024/03/21 11:42:42;;;;;;;8.68;5.32;;;16.30;99.90;;;;;;4979304;28;20444;-83
2024/03/21 11:45:13;;;;;;;11.60;5.97;;;16.30;99.90;;;;;;4978987;28;20026;-83
2024/03/21 11:47:39;;;;;;;14.73;6.22;;;16.30;99.90;;;;;;4979457;28;20153;-83
2024/03/21 11:50:05;;;;;;;11.32;5.75;;;16.40;99.90;;;;;;4978676;28;20088;-83
2024/03/21 11:52:30;;;;;;;10.18;6.28;;;16.50;99.90;;;;;;4979192;28;20028;-82
2024/03/21 11:54:56;;;;;;;11.73;6.25;;;16.60;99.90;;;;;;4978719;28;20022;-83
2024/03/21 11:57:22;;;;;;;11.50;6.00;;;16.50;99.90;;;;;;4978852;28;20053;-82
2024/03/21 11:59:49;;;;;;;12.20;6.72;;;16.50;99.90;;;;;;4978328;28;20065;-83
2024/03/21 12:02:17;;;;;;;12.65;6.85;;;16.60;99.90;;;;;;4978736;28;20444;-83
2024/03/21 12:04:43;;;;;;;11.07;6.25;;;16.70;99.90;;;;;;4978703;28;20026;-83
2024/03/21 12:07:16;;;;;;;10.35;5.85;;;16.90;99.90;;;;;;4996411;28;20073;-82
2024/03/21 12:09:42;;;;;;;9.98;5.53;;;17.10;99.90;;;;;;4995996;28;20034;-83
2024/03/21 12:12:15;;;;;;;13.30;6.07;;;17.30;99.90;;;;;;4995312;28;20030;-83
2024/03/21 12:14:43;;;;;;;10.07;6.03;;;17.40;99.90;;;;;;4995948;28;20029;-82
2024/03/21 12:17:11;;;;;;;10.50;6.00;;;17.50;99.90;;;;;;4995576;28;20018;-83
2024/03/21 12:19:37;;;;;;;9.48;5.47;;;17.50;99.90;;;;;;4978479;28;20121;-83
2024/03/21 12:22:03;;;;;;;10.07;5.55;;;17.60;99.90;;;;;;4978232;28;20022;-83
2024/03/21 12:24:28;;;;;;;8.07;5.35;;;17.60;99.90;;;;;;4995744;28;20025;-82
2024/03/21 12:26:54;;;;;;;10.35;5.28;;;17.60;99.90;;;;;;4978109;28;20030;-82
2024/03/21 12:29:19;;;;;;;8.85;5.00;;;17.50;99.90;;;;;;4995586;28;20072;-82
2024/03/21 12:31:45;;;;;;;8.48;5.55;;;17.40;99.90;;;;;;4978571;28;20018;-82
2024/03/21 12:34:11;;;;;;;7.95;4.55;;;17.30;99.90;;;;;;4978399;28;20395;-83
2024/03/21 12:36:36;;;;;;;8.05;4.13;;;17.30;99.90;;;;;;4977982;28;20113;-82
2024/03/21 12:39:02;;;;;;;8.90;4.30;;;17.30;99.90;;;;;;4977333;28;20022;-82
2024/03/21 12:41:28;;;;;;;14.07;6.95;;;17.30;99.90;;;;;;4978366;28;20106;-83
2024/03/21 12:43:56;;;;;;;19.25;10.60;;;17.40;99.90;;;;;;4977945;28;20022;-83